Time;durP1;ratioP1;P1;durP2;ratioP2;P2;SDS_P1;SDS_P2;PMS_P1;PMS_P2;Temp;Humidity;BMP_temperature;BMP_pressure;BME280_temperature;BME280_humidity;BME280_pressure;Samples;Min_cycle;Max_cycle;Signal;HPM_P1;HPM_P2
2022/08/20 00:01:11;;;;;;;52.85;27.02;;;;;;;21.49;100.00;99819.75;31043275;28;19956;-69
2022/08/20 00:16:15;;;;;;;21.75;14.10;;;;;;;21.28;100.00;99825.47;31048301;28;20054;-70
2022/08/20 00:31:21;;;;;;;19.23;13.27;;;;;;;21.23;100.00;99819.94;31053829;28;20411;-69
2022/08/20 00:46:26;;;;;;;19.35;13.05;;;;;;;21.06;100.00;99834.41;31029281;28;20056;-68
2022/08/20 01:01:33;;;;;;;21.70;13.52;;;;;;;21.28;100.00;99839.28;31051227;28;20058;-68
2022/08/20 01:17:01;;;;;;;21.52;14.07;;;;;;;21.26;100.00;99841.78;31026581;28;20055;-69
2022/08/20 01:32:04;;;;;;;20.58;13.07;;;;;;;21.25;100.00;99840.28;31043400;28;20053;-69
2022/08/20 01:47:14;;;;;;;20.80;12.90;;;;;;;21.39;100.00;99861.41;31035562;28;20093;-68
2022/08/20 02:02:16;;;;;;;18.48;13.00;;;;;;;21.50;100.00;99870.94;31053554;28;20608;-69
2022/08/20 02:17:22;;;;;;;19.42;13.10;;;;;;;21.46;100.00;99870.44;31042470;28;20081;-69
2022/08/20 02:32:23;;;;;;;27.85;15.57;;;;;;;21.38;100.00;99893.03;31061591;28;20054;-69
2022/08/20 02:47:34;;;;;;;30.10;18.92;;;;;;;21.32;100.00;99906.03;31044475;28;20120;-69
2022/08/20 03:02:36;;;;;;;21.15;14.18;;;;;;;21.28;100.00;99900.00;31053444;28;20050;-69
2022/08/20 03:17:38;;;;;;;22.67;12.30;;;;;;;21.19;100.00;99908.50;31027583;28;20058;-69
2022/08/20 03:32:41;;;;;;;23.63;13.77;;;;;;;21.17;100.00;99919.28;31029725;28;20607;-68
2022/08/20 03:47:43;;;;;;;21.97;13.63;;;;;;;21.29;100.00;99934.63;31050864;28;20053;-68
2022/08/20 04:02:45;;;;;;;23.50;13.45;;;;;;;21.45;100.00;99930.44;31045242;28;20042;-69
2022/08/20 04:17:49;;;;;;;21.27;12.33;;;;;;;21.57;100.00;99948.53;31035781;28;20049;-69
2022/08/20 04:32:51;;;;;;;21.90;13.07;;;;;;;21.97;100.00;99944.59;31042818;28;20046;-69
2022/08/20 04:47:54;;;;;;;24.13;13.57;;;;;;;22.17;100.00;99943.69;31055253;28;20061;-68
2022/08/20 05:02:56;;;;;;;23.37;12.87;;;;;;;22.49;100.00;99940.63;31067959;28;20058;-68
2022/08/20 05:18:01;;;;;;;20.10;12.00;;;;;;;22.59;100.00;99923.28;31049899;28;20184;-69
2022/08/20 05:33:05;;;;;;;20.63;11.55;;;;;;;22.72;100.00;99929.03;31031694;28;20057;-70
2022/08/20 05:48:10;;;;;;;18.58;10.68;;;;;;;22.59;100.00;99930.84;31038292;28;20392;-70
2022/08/20 06:18:34;;;;;;;20.65;10.80;;;;;;;22.92;100.00;99921.72;31040027;28;20117;-72
2022/08/20 06:33:36;;;;;;;19.80;11.00;;;;;;;23.71;96.12;99928.44;31019786;28;20066;-69
2022/08/20 06:48:38;;;;;;;25.93;11.13;;;;;;;24.88;88.30;99935.81;31049245;28;20116;-73
2022/08/20 07:03:41;;;;;;;18.57;9.77;;;;;;;25.96;85.55;99929.16;31058168;28;20050;-72
2022/08/20 07:18:57;;;;;;;17.13;10.13;;;;;;;26.91;79.34;99946.28;31082911;28;20097;-86
2022/08/20 07:33:59;;;;;;;16.20;10.52;;;;;;;26.35;81.84;99936.16;31062210;28;20069;-82
2022/08/20 07:49:04;;;;;;;20.75;10.93;;;;;;;27.32;77.75;99932.56;31061255;28;20030;-85
2022/08/20 08:04:06;;;;;;;17.63;7.28;;;;;;;27.91;75.48;99944.19;31046625;28;20153;-86
2022/08/20 08:19:10;;;;;;;15.50;8.65;;;;;;;28.07;73.17;99939.53;31052218;28;20048;-84
2022/08/20 08:34:12;;;;;;;20.42;8.88;;;;;;;29.34;69.53;99931.09;31049470;28;20050;-88
2022/08/20 08:49:23;;;;;;;15.93;8.57;;;;;;;30.25;63.14;99902.59;31061739;28;20050;-72
2022/08/20 09:04:38;;;;;;;14.00;8.07;;;;;;;31.01;57.81;99892.03;31032329;28;20137;-72
2022/08/20 09:19:40;;;;;;;21.60;11.93;;;;;;;31.30;57.02;99895.31;31033114;28;20054;-72
2022/08/20 09:34:45;;;;;;;16.30;9.55;;;;;;;31.95;56.37;99900.91;31065896;28;20062;-73
2022/08/20 09:49:49;;;;;;;16.35;9.15;;;;;;;32.22;55.55;99905.97;31042863;28;20050;-72
2022/08/20 10:04:51;;;;;;;15.05;7.93;;;;;;;32.66;54.58;99892.81;31020671;28;20395;-74
2022/08/20 10:20:07;;;;;;;10.52;8.65;;;;;;;33.11;52.01;99873.97;31063887;28;20062;-90
2022/08/20 10:35:09;;;;;;;9.75;7.47;;;;;;;33.65;48.31;99863.50;31060931;28;20050;-71
2022/08/20 10:50:15;;;;;;;12.55;8.05;;;;;;;34.16;43.89;99859.69;31054383;28;20054;-75
2022/08/20 11:05:17;;;;;;;11.05;8.38;;;;;;;35.11;42.37;99851.16;31029681;28;20057;-74
2022/08/20 11:20:22;;;;;;;11.05;7.70;;;;;;;34.78;41.57;99854.44;31068811;28;20046;-79
2022/08/20 11:35:25;;;;;;;8.40;7.18;;;;;;;35.43;40.98;99842.16;31052587;28;20046;-77
2022/08/20 11:50:48;;;;;;;9.68;6.93;;;;;;;34.10;42.25;99822.63;31075181;28;20170;-75
2022/08/20 12:05:50;;;;;;;8.07;5.28;;;;;;;32.70;44.00;99831.34;31026212;28;20054;-74
2022/08/20 12:20:53;;;;;;;7.80;5.80;;;;;;;31.49;46.65;99797.41;31000944;28;20061;-74
2022/08/20 12:35:56;;;;;;;11.48;5.25;;;;;;;30.86;49.04;99763.19;31051394;28;20054;-74
2022/08/20 12:50:58;;;;;;;10.48;5.15;;;;;;;30.57;49.75;99759.97;31046323;28;20056;-75
2022/08/20 13:06:00;;;;;;;9.65;4.97;;;;;;;29.77;51.74;99801.66;31075824;28;20062;-74
2022/08/20 13:21:02;;;;;;;12.27;5.55;;;;;;;28.94;55.38;99793.84;31053818;28;20500;-76
2022/08/20 13:36:04;;;;;;;12.73;5.40;;;;;;;27.97;60.67;99836.03;31043616;28;20046;-72
2022/08/20 13:51:06;;;;;;;6.68;5.03;;;;;;;27.30;63.83;99848.75;31031956;28;20050;-74
2022/08/20 14:06:08;;;;;;;8.95;4.57;;;;;;;26.54;73.77;99909.00;31070243;28;20426;-75
2022/08/20 14:21:10;;;;;;;0.43;0.43;;;;;;;21.63;nan;99970.66;31057625;28;20054;-74
2022/08/20 14:36:12;;;;;;;1.02;1.02;;;;;;;20.60;nan;99986.38;31071761;28;20315;-73
2022/08/20 15:13:30;;;;;;;0.05;0.05;;;;;;;20.93;100.00;99918.91;31838512;27;20383;-75
2022/08/20 15:28:32;;;;;;;0.10;0.10;;;;;;;20.62;100.00;99923.22;31833620;27;20129;-74
2022/08/20 15:43:34;;;;;;;0.22;0.22;;;;;;;20.60;100.00;99930.47;31838004;27;20058;-73
2022/08/20 15:58:47;;;;;;;0.30;0.30;;;;;;;20.88;100.00;99966.53;31829013;27;20058;-73
2022/08/20 16:13:55;;;;;;;2.77;0.20;;;;;;;20.56;100.00;99974.81;31738167;27;20060;-74
2022/08/20 16:29:19;;;;;;;0.88;0.88;;;;;;;20.59;100.00;99984.13;31716192;27;20412;-73
2022/08/20 16:44:23;;;;;;;0.90;0.57;;;;;;;20.64;100.00;100000.72;31664925;27;20050;-74
2022/08/20 16:59:30;;;;;;;0.70;0.70;;;;;;;20.76;100.00;100004.31;31667290;27;20506;-79
2022/08/20 17:14:43;;;;;;;0.60;0.60;;;;;;;20.90;100.00;99992.38;31715108;27;20054;-77
2022/08/20 17:29:55;;;;;;;0.52;0.52;;;;;;;20.87;100.00;99962.25;31698187;27;21557;-77
2022/08/20 17:45:12;;;;;;;0.55;0.55;;;;;;;20.89;100.00;99943.97;31738057;27;20059;-76
2022/08/20 18:00:22;;;;;;;1.55;0.40;;;;;;;20.87;100.00;99959.50;31726218;27;20058;-77
2022/08/20 18:15:31;;;;;;;0.30;0.30;;;;;;;21.06;100.00;99988.19;31699582;27;20485;-76
2022/08/20 18:30:33;;;;;;;0.15;0.15;;;;;;;21.25;100.00;99972.03;31671313;27;20044;-77
2022/08/20 18:45:35;;;;;;;17.02;5.57;;;;;;;21.25;100.00;99978.31;31686760;28;20048;-77
2022/08/20 19:00:43;;;;;;;20.35;6.25;;;;;;;21.25;100.00;99966.50;31692831;27;20047;-76
2022/08/20 19:15:53;;;;;;;17.23;5.72;;;;;;;21.25;100.00;99956.22;31678584;28;20133;-80
2022/08/20 19:30:55;;;;;;;30.80;13.63;;;;;;;21.22;100.00;99959.97;31685370;28;20062;-77
2022/08/20 19:45:57;;;;;;;22.47;8.07;;;;;;;21.14;100.00;99956.13;31747986;27;20133;-76
2022/08/20 20:01:02;;;;;;;21.40;8.48;;;;;;;21.04;100.00;99974.13;31714484;28;20055;-78
2022/08/20 20:16:04;;;;;;;24.92;8.63;;;;;;;20.95;100.00;99958.53;31768938;27;20471;-78
2022/08/20 20:31:09;;;;;;;38.27;11.63;;;;;;;20.94;100.00;99950.75;31712443;28;20060;-79
2022/08/20 20:46:19;;;;;;;33.15;10.93;;;;;;;20.93;100.00;99943.72;31687970;27;20039;-78
2022/08/20 21:01:21;;;;;;;25.48;9.32;;;;;;;20.85;100.00;99962.75;31683806;27;20064;-80
2022/08/20 21:16:43;;;;;;;22.83;8.27;;;;;;;20.85;100.00;99951.69;31684082;28;20043;-77
2022/08/20 21:31:45;;;;;;;27.53;9.30;;;;;;;20.83;100.00;99964.47;31737774;27;20460;-76
2022/08/20 21:46:49;;;;;;;30.15;8.25;;;;;;;20.66;100.00;99953.34;31684963;27;20054;-75
2022/08/20 22:01:51;;;;;;;;;;;;;;;20.45;100.00;99947.19;31687629;27;20393;-77
2022/08/20 22:16:53;;;;;;;25.38;7.88;;;;;;;20.41;100.00;99935.63;31676524;27;19919;-76
2022/08/20 22:31:55;;;;;;;20.02;7.20;;;;;;;20.32;100.00;99916.44;31686838;27;20047;-76
2022/08/20 22:47:00;;;;;;;25.85;8.70;;;;;;;20.15;100.00;99934.88;31661506;27;20047;-76
2022/08/20 23:02:06;;;;;;;29.08;8.80;;;;;;;20.05;100.00;99920.50;31678826;28;20054;-76
2022/08/20 23:17:13;;;;;;;45.28;8.38;;;;;;;19.99;100.00;99923.22;31691052;27;20062;-77
2022/08/20 23:32:15;;;;;;;27.95;8.80;;;;;;;19.90;100.00;99926.13;31737222;27;20047;-77
2022/08/20 23:47:20;;;;;;;30.30;7.10;;;;;;;19.77;100.00;99912.00;31699753;27;20039;-78
